Time;durP1;ratioP1;P1;durP2;ratioP2;P2;SDS_P1;SDS_P2;PMS_P1;PMS_P2;Temp;Humidity;BMP_temperature;BMP_pressure;BME280_temperature;BME280_humidity;BME280_pressure;Samples;Min_cycle;Max_cycle;Signal;HPM_P1;HPM_P2
2021/06/30 00:02:21;;;;;;;1.23;1.00;;;21.70;92.60;;;;;;5013694;28;20108;-85
2021/06/30 00:04:46;;;;;;;2.15;1.00;;;21.60;92.40;;;;;;5005900;28;20121;-85
2021/06/30 00:07:12;;;;;;;2.42;1.15;;;21.50;92.60;;;;;;5002347;28;20494;-85
2021/06/30 00:09:38;;;;;;;1.45;1.35;;;21.40;92.70;;;;;;5013587;28;20354;-84
2021/06/30 00:12:05;;;;;;;1.20;0.90;;;21.30;92.90;;;;;;5017702;28;20069;-84
2021/06/30 00:14:30;;;;;;;1.08;0.85;;;21.20;92.80;;;;;;5008295;28;20376;-84
2021/06/30 00:16:56;;;;;;;1.10;0.95;;;21.20;93.10;;;;;;5016518;28;20125;-84
2021/06/30 00:19:23;;;;;;;1.35;0.80;;;21.20;93.00;;;;;;5010972;28;20038;-84
2021/06/30 00:21:49;;;;;;;1.10;0.90;;;21.10;93.20;;;;;;5014001;28;20049;-84
2021/06/30 00:24:14;;;;;;;1.58;0.95;;;21.10;93.10;;;;;;5029409;28;20079;-83
2021/06/30 00:26:40;;;;;;;3.35;1.40;;;21.10;93.20;;;;;;5015272;28;20095;-84
2021/06/30 00:36:47;;;;;;;0.88;0.73;;;20.90;93.50;;;;;;5013282;28;20090;-84
2021/06/30 00:42:35;;;;;;;1.33;1.23;;;20.70;93.60;;;;;;5016256;28;20107;-83
2021/06/30 00:45:06;;;;;;;1.25;1.00;;;20.60;93.70;;;;;;5001120;28;20390;-84
2021/06/30 00:47:32;;;;;;;0.70;0.68;;;20.50;94.00;;;;;;5012995;28;20037;-84
2021/06/30 00:49:59;;;;;;;2.38;1.20;;;20.40;93.80;;;;;;5018847;28;20061;-84
2021/06/30 00:52:25;;;;;;;2.75;1.27;;;20.40;94.00;;;;;;5015387;28;20084;-83
2021/06/30 00:54:50;;;;;;;1.98;0.93;;;20.30;94.00;;;;;;5017687;28;20413;-86
2021/06/30 00:57:17;;;;;;;1.60;0.98;;;20.30;94.10;;;;;;5012591;28;20060;-82
2021/06/30 00:59:44;;;;;;;2.40;1.00;;;20.30;94.30;;;;;;5016316;28;20042;-84
2021/06/30 01:02:09;;;;;;;2.35;1.08;;;20.30;94.20;;;;;;5031866;28;20053;-84
2021/06/30 01:04:35;;;;;;;1.10;1.00;;;20.20;94.10;;;;;;5002001;28;20054;-83
2021/06/30 01:07:00;;;;;;;3.75;0.95;;;20.20;94.20;;;;;;5025575;28;20057;-83
2021/06/30 01:09:26;;;;;;;1.38;0.98;;;20.20;94.10;;;;;;5003940;28;20042;-84
2021/06/30 01:11:51;;;;;;;3.58;0.88;;;20.20;94.10;;;;;;5008281;28;20033;-83
2021/06/30 01:14:31;;;;;;;0.95;0.80;;;20.20;94.10;;;;;;5016475;28;20042;-85
2021/06/30 01:16:57;;;;;;;1.55;1.13;;;20.20;94.10;;;;;;5006295;28;20309;-85
2021/06/30 01:19:23;;;;;;;0.98;0.85;;;20.20;93.90;;;;;;5007583;28;20058;-84
2021/06/30 01:21:51;;;;;;;0.82;0.80;;;20.20;93.90;;;;;;5029763;28;20037;-84
2021/06/30 01:24:17;;;;;;;4.65;0.95;;;20.20;93.90;;;;;;5016248;28;20058;-82
2021/06/30 01:26:43;;;;;;;1.27;0.85;;;20.10;93.70;;;;;;5014977;28;20084;-83
2021/06/30 01:29:09;;;;;;;1.73;0.93;;;20.10;93.80;;;;;;5016511;28;20405;-85
2021/06/30 01:31:35;;;;;;;1.33;0.90;;;20.10;93.90;;;;;;5019237;28;20095;-83
2021/06/30 01:34:00;;;;;;;1.25;0.90;;;20.20;93.80;;;;;;5027240;28;20053;-84
2021/06/30 01:36:26;;;;;;;1.20;0.90;;;20.20;93.70;;;;;;5020351;28;20389;-84
2021/06/30 01:38:51;;;;;;;2.45;0.73;;;20.10;93.80;;;;;;5020928;28;20038;-84
2021/06/30 01:41:17;;;;;;;2.22;0.90;;;20.10;93.70;;;;;;5023977;28;20069;-83
2021/06/30 01:43:42;;;;;;;1.30;0.73;;;20.10;93.90;;;;;;5014021;28;20061;-83
2021/06/30 01:46:08;;;;;;;1.35;0.80;;;20.00;93.90;;;;;;5000754;28;20050;-83
2021/06/30 01:48:34;;;;;;;1.20;0.90;;;20.00;94.00;;;;;;5016068;28;20037;-83
2021/06/30 01:51:00;;;;;;;1.55;0.70;;;20.00;94.10;;;;;;5015097;28;20054;-84
2021/06/30 01:53:26;;;;;;;1.55;0.73;;;20.00;94.00;;;;;;5015295;28;20116;-83
2021/06/30 01:55:52;;;;;;;1.25;0.80;;;20.00;94.20;;;;;;5006003;28;20042;-84
2021/06/30 01:58:20;;;;;;;1.20;0.75;;;20.00;94.00;;;;;;5014451;28;20489;-85
2021/06/30 02:00:54;;;;;;;2.00;1.15;;;20.00;94.10;;;;;;5015935;28;20046;-85
2021/06/30 02:03:20;;;;;;;2.25;1.23;;;20.00;94.10;;;;;;5015667;28;20037;-84
2021/06/30 02:05:45;;;;;;;0.82;0.80;;;20.00;94.10;;;;;;5008238;28;20046;-84
2021/06/30 02:08:11;;;;;;;1.10;0.90;;;20.00;94.10;;;;;;5015376;28;20406;-83
2021/06/30 02:10:39;;;;;;;3.53;1.25;;;19.90;94.20;;;;;;5014604;28;20328;-85
2021/06/30 02:13:05;;;;;;;0.95;0.80;;;20.00;94.20;;;;;;5026590;28;20026;-83
2021/06/30 02:15:32;;;;;;;2.08;1.13;;;20.00;94.20;;;;;;5022180;28;20071;-84
2021/06/30 02:17:59;;;;;;;2.20;1.30;;;20.00;94.10;;;;;;5013482;28;20041;-85
2021/06/30 02:20:26;;;;;;;1.17;1.00;;;20.00;94.20;;;;;;5014609;28;20508;-83
2021/06/30 02:22:53;;;;;;;4.13;1.40;;;20.00;94.30;;;;;;5014273;28;20038;-84
2021/06/30 02:25:21;;;;;;;6.20;1.40;;;20.00;94.20;;;;;;5015817;28;20041;-83
2021/06/30 02:27:48;;;;;;;1.58;1.13;;;20.00;94.20;;;;;;5013479;28;20095;-83
2021/06/30 02:30:17;;;;;;;1.95;1.42;;;20.00;94.40;;;;;;5014192;28;20112;-83
2021/06/30 02:32:44;;;;;;;3.35;1.88;;;20.00;94.30;;;;;;5014152;28;20042;-83
2021/06/30 02:35:14;;;;;;;1.60;1.30;;;19.90;94.40;;;;;;5014775;28;20369;-83
2021/06/30 02:37:41;;;;;;;2.28;1.83;;;19.90;94.30;;;;;;5017542;28;20096;-82
2021/06/30 02:40:09;;;;;;;2.33;1.20;;;19.90;94.50;;;;;;5004501;28;20076;-83
2021/06/30 02:42:34;;;;;;;5.10;1.92;;;19.90;94.40;;;;;;5004466;28;20431;-84
2021/06/30 02:45:00;;;;;;;5.80;1.70;;;19.90;94.40;;;;;;5016729;28;20073;-84
2021/06/30 02:47:26;;;;;;;1.77;1.40;;;19.90;94.40;;;;;;5013229;28;20038;-83
2021/06/30 02:49:52;;;;;;;1.42;1.13;;;19.90;94.50;;;;;;5031979;28;20041;-83
2021/06/30 02:52:17;;;;;;;1.33;1.02;;;19.90;94.50;;;;;;5009724;28;20124;-83
2021/06/30 02:54:42;;;;;;;2.05;1.42;;;19.90;94.70;;;;;;5015074;28;20042;-83
2021/06/30 02:57:08;;;;;;;2.58;1.20;;;19.90;94.50;;;;;;5011387;28;20034;-83
2021/06/30 02:59:34;;;;;;;1.50;1.40;;;19.90;94.50;;;;;;5005531;28;20309;-83
2021/06/30 03:01:59;;;;;;;1.55;1.08;;;19.90;94.50;;;;;;4999658;28;20045;-83
2021/06/30 03:04:24;;;;;;;1.92;1.20;;;19.90;94.50;;;;;;5010679;28;20040;-84
2021/06/30 03:06:50;;;;;;;2.05;1.13;;;19.90;94.50;;;;;;5015604;28;20045;-82
2021/06/30 03:09:19;;;;;;;1.88;1.08;;;20.00;94.50;;;;;;5018033;28;20472;-83
2021/06/30 03:11:44;;;;;;;1.85;1.15;;;20.00;94.40;;;;;;5026903;28;20034;-84
2021/06/30 03:14:10;;;;;;;1.30;1.02;;;20.00;94.50;;;;;;5032214;28;20065;-84
2021/06/30 03:16:35;;;;;;;1.55;1.42;;;20.00;94.40;;;;;;5017644;28;20040;-83
2021/06/30 03:19:01;;;;;;;1.80;0.93;;;19.90;94.40;;;;;;5015360;28;20293;-84
2021/06/30 03:21:26;;;;;;;1.25;1.02;;;19.90;94.30;;;;;;5007453;28;20443;-83
2021/06/30 03:23:52;;;;;;;1.25;1.15;;;19.80;94.50;;;;;;5016178;28;20042;-84
2021/06/30 03:26:17;;;;;;;2.85;1.15;;;19.80;94.60;;;;;;5016954;28;20152;-84
2021/06/30 03:28:43;;;;;;;2.08;1.27;;;19.80;94.60;;;;;;5018847;28;20060;-85
2021/06/30 03:31:08;;;;;;;1.67;0.95;;;19.80;94.60;;;;;;5016379;28;20042;-84
2021/06/30 03:33:34;;;;;;;1.80;1.20;;;19.80;94.50;;;;;;5016500;28;20390;-83
2021/06/30 03:35:59;;;;;;;1.33;0.95;;;19.70;94.80;;;;;;5018249;28;20046;-84
2021/06/30 03:38:25;;;;;;;1.85;0.95;;;19.70;94.60;;;;;;5015968;28;20041;-83
2021/06/30 03:40:50;;;;;;;1.67;1.08;;;19.80;94.70;;;;;;5016743;28;20106;-84
2021/06/30 03:43:15;;;;;;;1.77;1.13;;;19.80;94.50;;;;;;5013707;28;20050;-84
2021/06/30 03:45:41;;;;;;;3.33;1.13;;;19.70;94.60;;;;;;5009110;28;20045;-84
2021/06/30 03:48:07;;;;;;;1.30;0.90;;;19.70;94.60;;;;;;5016673;28;20322;-84
2021/06/30 03:50:32;;;;;;;1.45;0.85;;;19.70;94.50;;;;;;5014208;28;20092;-83
2021/06/30 03:52:58;;;;;;;8.18;0.70;;;19.70;94.60;;;;;;5017650;28;20041;-84
2021/06/30 03:55:23;;;;;;;1.40;0.90;;;19.70;94.50;;;;;;5028941;28;20035;-84
2021/06/30 03:57:49;;;;;;;1.40;0.82;;;19.70;94.30;;;;;;4999442;28;20038;-85
2021/06/30 04:00:14;;;;;;;2.53;0.95;;;19.70;94.50;;;;;;5008184;28;20703;-84
2021/06/30 04:02:40;;;;;;;1.48;0.90;;;19.70;94.30;;;;;;5016561;28;20041;-84
2021/06/30 04:05:06;;;;;;;3.83;0.82;;;19.70;94.20;;;;;;5016875;28;20310;-84
2021/06/30 04:07:33;;;;;;;5.20;1.00;;;19.70;94.40;;;;;;5017985;28;20097;-84
2021/06/30 04:09:59;;;;;;;1.90;1.00;;;19.70;94.30;;;;;;5016574;28;20129;-84
2021/06/30 04:12:24;;;;;;;1.55;1.00;;;19.70;94.30;;;;;;5018092;28;20187;-84
2021/06/30 04:14:50;;;;;;;2.25;1.20;;;19.70;94.20;;;;;;5015259;28;20046;-84
2021/06/30 04:17:15;;;;;;;1.83;0.75;;;19.80;94.30;;;;;;5028041;28;20029;-84
2021/06/30 04:19:41;;;;;;;1.80;1.02;;;19.80;94.30;;;;;;5029499;28;20100;-84
2021/06/30 04:22:06;;;;;;;2.05;0.95;;;19.80;94.10;;;;;;5022733;28;20080;-83
2021/06/30 04:24:32;;;;;;;1.88;0.93;;;19.70;94.30;;;;;;5026579;28;20042;-83
2021/06/30 04:26:57;;;;;;;2.25;0.90;;;19.70;94.20;;;;;;5010513;28;20057;-83
2021/06/30 04:29:23;;;;;;;1.73;1.33;;;19.70;94.10;;;;;;4999311;28;20042;-83
2021/06/30 04:31:48;;;;;;;4.72;1.02;;;19.60;94.20;;;;;;5012205;28;20049;-82
2021/06/30 04:34:14;;;;;;;2.50;1.10;;;19.60;94.50;;;;;;5020981;28;20041;-82
2021/06/30 04:36:39;;;;;;;4.75;1.40;;;19.50;94.60;;;;;;5015775;28;20061;-83
2021/06/30 04:39:05;;;;;;;1.60;1.02;;;19.60;94.30;;;;;;5015665;28;20061;-83
2021/06/30 04:41:31;;;;;;;6.35;1.55;;;19.60;94.30;;;;;;5011868;28;20444;-83
2021/06/30 04:43:57;;;;;;;4.72;1.30;;;19.60;94.40;;;;;;5014523;28;20058;-84
2021/06/30 04:46:24;;;;;;;2.03;1.50;;;19.70;94.20;;;;;;5044172;28;20042;-84
2021/06/30 04:48:49;;;;;;;3.75;1.63;;;19.70;94.10;;;;;;5022927;28;20038;-83
2021/06/30 04:51:15;;;;;;;6.43;1.30;;;19.70;94.20;;;;;;5013543;28;20054;-84
2021/06/30 04:53:40;;;;;;;2.92;1.10;;;19.70;94.10;;;;;;5014358;28;20394;-83
2021/06/30 04:56:06;;;;;;;2.22;1.35;;;19.60;94.20;;;;;;5041747;28;20363;-84
2021/06/30 04:58:31;;;;;;;4.63;1.42;;;19.60;94.40;;;;;;5044408;28;20048;-83
2021/06/30 05:00:57;;;;;;;2.38;1.42;;;19.50;94.40;;;;;;5009792;28;20042;-84
2021/06/30 05:03:27;;;;;;;4.28;2.05;;;19.50;94.60;;;;;;5014790;28;20034;-82
2021/06/30 05:05:56;;;;;;;6.72;1.60;;;19.50;94.50;;;;;;5013947;28;20042;-83
2021/06/30 05:08:23;;;;;;;3.10;1.70;;;19.40;94.70;;;;;;5009879;28;20112;-83
2021/06/30 05:10:52;;;;;;;2.13;1.52;;;19.40;95.00;;;;;;4994477;28;20038;-83
2021/06/30 05:13:18;;;;;;;5.25;1.73;;;19.40;94.90;;;;;;5001947;28;20118;-82
2021/06/30 05:15:44;;;;;;;2.33;1.70;;;19.30;95.10;;;;;;5002803;28;20038;-84
2021/06/30 05:18:10;;;;;;;3.22;2.25;;;19.40;95.00;;;;;;5012039;28;20046;-85
2021/06/30 05:20:36;;;;;;;3.05;2.75;;;19.40;95.00;;;;;;5009317;28;20563;-83
2021/06/30 05:23:01;;;;;;;4.63;1.65;;;19.40;95.10;;;;;;5008139;28;20063;-84
2021/06/30 05:25:28;;;;;;;1.73;1.58;;;19.30;95.20;;;;;;5008182;28;20297;-84
2021/06/30 05:27:53;;;;;;;3.95;2.13;;;19.20;95.50;;;;;;5010626;28;20030;-84
2021/06/30 05:30:19;;;;;;;4.78;1.90;;;19.20;95.60;;;;;;5013376;28;20432;-84
2021/06/30 05:32:45;;;;;;;2.13;1.88;;;19.20;95.70;;;;;;5016576;28;20050;-84
2021/06/30 05:35:10;;;;;;;7.53;2.05;;;19.30;95.70;;;;;;5013863;28;20037;-84
2021/06/30 05:37:36;;;;;;;5.18;2.33;;;19.30;95.80;;;;;;5014653;28;20318;-84
2021/06/30 05:40:02;;;;;;;4.18;2.00;;;19.20;96.10;;;;;;5015261;28;20111;-84
2021/06/30 05:42:28;;;;;;;2.63;2.25;;;19.20;96.20;;;;;;5021020;28;20461;-85
2021/06/30 05:44:54;;;;;;;5.05;2.47;;;19.20;96.60;;;;;;5012843;28;20056;-84
2021/06/30 05:47:19;;;;;;;3.10;2.03;;;19.10;97.10;;;;;;4998309;28;20046;-86
2021/06/30 05:49:45;;;;;;;3.65;2.80;;;19.10;97.30;;;;;;5009089;28;20112;-86
2021/06/30 05:52:10;;;;;;;3.83;2.72;;;19.10;97.40;;;;;;5005997;28;20145;-86
2021/06/30 05:54:36;;;;;;;5.63;2.40;;;19.00;97.70;;;;;;5023465;28;20440;-85
2021/06/30 05:57:01;;;;;;;4.85;2.78;;;19.00;97.90;;;;;;5013705;28;20093;-86
2021/06/30 05:59:27;;;;;;;5.32;3.33;;;19.00;98.30;;;;;;5024436;28;20303;-86
2021/06/30 06:01:53;;;;;;;8.15;3.85;;;18.90;98.40;;;;;;5021162;28;20052;-85
2021/06/30 06:04:19;;;;;;;4.43;3.17;;;18.80;98.60;;;;;;5018602;28;20033;-86
2021/06/30 06:06:44;;;;;;;6.78;3.30;;;18.80;98.60;;;;;;5007824;28;20046;-84
2021/06/30 06:09:10;;;;;;;7.25;4.03;;;18.70;98.80;;;;;;5005733;28;20413;-87
2021/06/30 06:11:35;;;;;;;6.45;3.35;;;18.60;99.00;;;;;;4999016;28;20038;-87
2021/06/30 06:14:01;;;;;;;9.80;3.95;;;18.60;99.10;;;;;;5004704;28;20038;-87
2021/06/30 06:16:26;;;;;;;5.30;3.63;;;18.60;99.10;;;;;;4997950;28;20044;-85
2021/06/30 06:18:52;;;;;;;4.97;3.70;;;18.50;99.30;;;;;;5009068;28;20038;-87
2021/06/30 06:21:18;;;;;;;6.93;4.13;;;18.50;99.50;;;;;;5012804;28;20417;-88
2021/06/30 06:23:43;;;;;;;5.40;4.00;;;18.40;99.60;;;;;;5029200;28;20590;-88
2021/06/30 06:26:09;;;;;;;5.70;4.00;;;18.40;99.90;;;;;;5011948;28;20046;-87
2021/06/30 06:28:35;;;;;;;6.65;4.47;;;18.40;99.90;;;;;;5011193;28;20702;-87
2021/06/30 06:31:03;;;;;;;6.43;4.35;;;18.40;99.90;;;;;;5013956;28;20056;-87
2021/06/30 06:33:28;;;;;;;7.10;4.18;;;18.40;99.90;;;;;;5011626;28;20042;-88
2021/06/30 06:35:54;;;;;;;9.88;5.13;;;18.50;99.90;;;;;;5010690;28;20048;-87
2021/06/30 06:38:23;;;;;;;9.93;5.03;;;18.40;99.90;;;;;;5012471;28;20298;-87
2021/06/30 06:40:48;;;;;;;9.38;5.78;;;18.40;99.90;;;;;;5014109;28;20096;-87
2021/06/30 06:43:14;;;;;;;6.38;4.88;;;18.50;99.90;;;;;;5020812;28;20041;-87
2021/06/30 06:45:40;;;;;;;9.27;5.20;;;18.40;99.90;;;;;;5013605;28;20049;-87
2021/06/30 06:48:06;;;;;;;8.82;5.72;;;18.40;99.90;;;;;;5017624;28;20042;-85
2021/06/30 06:50:32;;;;;;;5.38;4.70;;;18.40;99.90;;;;;;5012595;28;20132;-85
2021/06/30 06:52:57;;;;;;;9.25;5.18;;;18.40;99.90;;;;;;5016822;28;20509;-86
2021/06/30 06:55:23;;;;;;;11.23;6.30;;;18.40;99.90;;;;;;5013339;28;20045;-88
2021/06/30 06:57:49;;;;;;;12.52;7.00;;;18.40;99.90;;;;;;5003807;28;20570;-87
2021/06/30 07:00:16;;;;;;;10.15;6.28;;;18.40;99.90;;;;;;5010867;28;20034;-87
2021/06/30 07:02:41;;;;;;;11.50;6.55;;;18.50;99.90;;;;;;5016893;28;20136;-85
2021/06/30 07:05:07;;;;;;;10.77;6.40;;;18.50;99.90;;;;;;5044880;28;20137;-85
2021/06/30 07:07:44;;;;;;;13.55;6.55;;;18.40;99.90;;;;;;5017341;28;20038;-86
2021/06/30 07:10:11;;;;;;;9.73;5.97;;;18.50;99.90;;;;;;5016942;28;20041;-85
2021/06/30 07:12:36;;;;;;;6.45;4.95;;;18.50;99.90;;;;;;5015591;28;20096;-85
2021/06/30 07:15:07;;;;;;;7.45;5.30;;;18.60;99.90;;;;;;5018473;28;20065;-85
2021/06/30 07:17:36;;;;;;;5.57;4.57;;;18.60;99.90;;;;;;5025313;28;20057;-84
2021/06/30 07:20:06;;;;;;;5.80;4.13;;;18.70;99.90;;;;;;5029852;28;20041;-86
2021/06/30 07:22:32;;;;;;;7.03;4.07;;;18.70;99.90;;;;;;5039317;28;20053;-86
2021/06/30 07:24:58;;;;;;;7.15;3.95;;;18.70;99.70;;;;;;5019117;28;20042;-87
2021/06/30 07:27:23;;;;;;;8.13;3.83;;;18.70;99.80;;;;;;5016489;28;20038;-87
2021/06/30 07:29:49;;;;;;;4.00;3.63;;;18.70;99.80;;;;;;5023864;28;20472;-86
2021/06/30 07:32:15;;;;;;;5.38;3.70;;;18.70;99.90;;;;;;5020733;28;20417;-88
2021/06/30 07:34:40;;;;;;;4.63;3.45;;;18.70;99.80;;;;;;5019859;28;20033;-89
2021/06/30 07:37:06;;;;;;;4.97;3.05;;;18.80;99.70;;;;;;5016765;28;20034;-87
2021/06/30 07:39:32;;;;;;;6.00;3.25;;;18.90;99.30;;;;;;5018766;28;20037;-91
2021/06/30 07:41:57;;;;;;;5.45;3.17;;;18.90;99.10;;;;;;5018290;28;20038;-91
2021/06/30 07:44:23;;;;;;;6.03;3.50;;;18.90;99.20;;;;;;5014794;28;20046;-85
2021/06/30 07:46:49;;;;;;;4.95;3.15;;;18.90;99.10;;;;;;5016003;28;20055;-86
2021/06/30 07:49:14;;;;;;;5.13;3.13;;;18.90;99.10;;;;;;5016586;28;20386;-86
2021/06/30 07:51:41;;;;;;;3.83;2.83;;;18.80;99.50;;;;;;5052184;28;20056;-85
2021/06/30 07:54:06;;;;;;;5.18;2.53;;;18.80;99.30;;;;;;5035858;28;20290;-86
2021/06/30 07:56:36;;;;;;;3.40;2.75;;;18.90;99.20;;;;;;5035446;28;20048;-86
2021/06/30 07:59:09;;;;;;;5.63;3.22;;;18.90;99.00;;;;;;5028224;28;20625;-85
2021/06/30 08:01:35;;;;;;;3.38;2.65;;;18.90;99.30;;;;;;5014531;28;20747;-85
2021/06/30 08:04:02;;;;;;;7.85;2.67;;;18.90;98.90;;;;;;5016051;28;20132;-86
2021/06/30 08:06:28;;;;;;;4.15;2.50;;;19.00;98.70;;;;;;5004644;28;20049;-85
2021/06/30 08:08:53;;;;;;;6.75;2.47;;;19.00;98.90;;;;;;5010654;28;20048;-85
2021/06/30 08:11:23;;;;;;;3.30;2.40;;;19.10;98.70;;;;;;5016288;28;20314;-85
2021/06/30 08:13:49;;;;;;;3.17;2.45;;;19.10;98.40;;;;;;5014958;28;20303;-86
2021/06/30 08:16:15;;;;;;;2.63;2.25;;;19.10;98.70;;;;;;5016172;28;20044;-85
2021/06/30 08:18:40;;;;;;;2.88;2.35;;;19.10;98.50;;;;;;5016839;28;20030;-85
2021/06/30 08:21:06;;;;;;;4.00;2.55;;;19.00;98.90;;;;;;5014885;28;20077;-85
2021/06/30 08:23:32;;;;;;;6.10;2.30;;;19.10;98.90;;;;;;5015113;28;20056;-85
2021/06/30 08:25:57;;;;;;;5.05;2.40;;;19.20;98.80;;;;;;5018016;28;20050;-85
2021/06/30 08:28:24;;;;;;;4.68;2.78;;;19.20;98.80;;;;;;5026123;28;20042;-86
2021/06/30 08:30:51;;;;;;;5.88;2.45;;;19.30;98.70;;;;;;5017192;28;20042;-85
2021/06/30 08:33:17;;;;;;;3.80;2.08;;;19.40;98.50;;;;;;5014838;28;20257;-86
2021/06/30 08:35:42;;;;;;;6.15;3.17;;;19.40;98.40;;;;;;5014362;28;20262;-85
2021/06/30 08:38:08;;;;;;;5.82;2.95;;;19.50;98.70;;;;;;5014592;28;20038;-86
2021/06/30 08:40:34;;;;;;;4.80;2.50;;;19.50;98.10;;;;;;5014511;28;20042;-84
2021/06/30 08:43:00;;;;;;;2.55;2.30;;;19.50;97.50;;;;;;5014990;28;20123;-84
2021/06/30 08:45:25;;;;;;;4.28;2.58;;;19.50;97.50;;;;;;5015118;28;20042;-84
2021/06/30 08:47:55;;;;;;;3.97;2.97;;;19.40;97.60;;;;;;5015500;28;20042;-85
2021/06/30 08:50:21;;;;;;;5.15;2.63;;;19.40;97.90;;;;;;5014856;28;20038;-85
2021/06/30 08:52:48;;;;;;;4.43;2.50;;;19.50;97.70;;;;;;5014731;28;20054;-86
2021/06/30 08:55:16;;;;;;;3.97;3.13;;;19.50;97.50;;;;;;5013462;28;20042;-85
2021/06/30 08:57:47;;;;;;;3.25;2.45;;;19.60;98.10;;;;;;5013252;28;20048;-85
2021/06/30 09:00:13;;;;;;;3.00;2.70;;;19.60;97.70;;;;;;5015742;28;20034;-85
2021/06/30 09:02:43;;;;;;;6.53;2.35;;;19.70;97.70;;;;;;5021600;28;20041;-85
2021/06/30 09:05:24;;;;;;;2.85;2.65;;;19.70;97.70;;;;;;5019846;28;20425;-85
2021/06/30 09:07:51;;;;;;;3.13;2.40;;;19.70;97.30;;;;;;5028584;28;20042;-85
2021/06/30 09:10:30;;;;;;;6.18;2.35;;;19.70;97.80;;;;;;4997836;28;20037;-86
2021/06/30 09:12:55;;;;;;;3.38;2.47;;;19.80;97.80;;;;;;5015878;28;20425;-87
2021/06/30 09:15:27;;;;;;;2.55;2.28;;;19.80;97.50;;;;;;5016351;28;20148;-85
2021/06/30 09:17:53;;;;;;;4.70;2.60;;;19.90;97.70;;;;;;5004571;28;20286;-85
2021/06/30 09:20:19;;;;;;;4.32;2.33;;;19.90;97.60;;;;;;5015998;28;20128;-84
2021/06/30 09:22:52;;;;;;;6.53;1.85;;;20.00;97.40;;;;;;5028864;28;20049;-84
2021/06/30 09:25:29;;;;;;;2.97;2.08;;;20.10;97.40;;;;;;5028234;28;20069;-85
2021/06/30 09:27:55;;;;;;;3.75;1.95;;;20.10;97.10;;;;;;5036276;28;20041;-84
2021/06/30 09:30:21;;;;;;;12.40;3.15;;;20.10;96.50;;;;;;5017635;28;20356;-85
2021/06/30 09:33:02;;;;;;;3.78;1.98;;;20.20;97.40;;;;;;5019116;28;20553;-86
2021/06/30 09:35:31;;;;;;;5.18;2.10;;;20.20;96.80;;;;;;5018090;28;20042;-85
2021/06/30 09:37:57;;;;;;;3.92;1.73;;;20.30;96.50;;;;;;5024852;28;20032;-85
2021/06/30 09:40:40;;;;;;;4.43;1.70;;;20.20;96.30;;;;;;5005025;28;20038;-84
2021/06/30 09:43:20;;;;;;;;;;;20.20;96.40;;;;;;5010595;28;20034;-85
2021/06/30 09:45:46;;;;;;;1.90;1.60;;;20.10;96.20;;;;;;5013525;28;20311;-84
2021/06/30 09:48:24;;;;;;;1.85;1.67;;;20.00;96.40;;;;;;5014145;28;20077;-84
2021/06/30 09:50:50;;;;;;;2.05;1.73;;;20.00;96.90;;;;;;5015619;28;20037;-87
2021/06/30 09:53:44;;;;;;;8.40;1.88;;;20.00;96.50;;;;;;5013716;28;20096;-86
2021/06/30 09:56:33;;;;;;;5.90;2.60;;;19.90;96.70;;;;;;5015116;28;20616;-86
2021/06/30 09:59:16;;;;;;;3.92;1.60;;;20.00;96.60;;;;;;5026425;28;20664;-85
2021/06/30 10:01:43;;;;;;;3.83;1.70;;;20.00;96.50;;;;;;5032624;28;20033;-85
2021/06/30 10:04:21;;;;;;;3.80;1.70;;;20.00;96.90;;;;;;5033756;28;20045;-86
2021/06/30 10:06:46;;;;;;;2.10;1.90;;;20.00;96.40;;;;;;5032532;28;20066;-86
2021/06/30 10:09:13;;;;;;;5.30;1.48;;;20.00;96.60;;;;;;5036543;28;20292;-86
2021/06/30 10:11:39;;;;;;;4.20;1.63;;;20.00;96.60;;;;;;5052548;28;20447;-85
2021/06/30 10:14:04;;;;;;;2.00;1.50;;;20.10;96.30;;;;;;5051170;28;20041;-85
2021/06/30 10:16:30;;;;;;;3.25;2.10;;;20.00;96.60;;;;;;5049616;28;20037;-85
2021/06/30 10:18:59;;;;;;;1.50;1.40;;;19.90;96.40;;;;;;5032719;28;20033;-85
2021/06/30 10:21:30;;;;;;;3.30;1.70;;;19.90;96.50;;;;;;5028170;28;20432;-86
2021/06/30 10:23:56;;;;;;;2.17;1.40;;;20.00;96.10;;;;;;5039257;28;20571;-85
2021/06/30 10:26:22;;;;;;;2.60;1.92;;;19.90;95.80;;;;;;5046840;28;20037;-85
2021/06/30 10:29:00;;;;;;;4.35;1.52;;;19.90;96.20;;;;;;5037879;28;20065;-84
2021/06/30 10:31:31;;;;;;;2.80;1.83;;;19.90;95.80;;;;;;5020712;28;20053;-85
2021/06/30 10:33:59;;;;;;;3.13;1.30;;;19.90;95.80;;;;;;5017975;28;20386;-87
2021/06/30 10:36:49;;;;;;;2.42;1.60;;;20.00;96.00;;;;;;5014518;28;20109;-88
2021/06/30 10:39:18;;;;;;;4.63;1.70;;;20.00;95.70;;;;;;4999148;28;20073;-88
2021/06/30 10:41:54;;;;;;;2.67;1.88;;;20.00;95.40;;;;;;5011261;28;20263;-88
2021/06/30 10:44:26;;;;;;;3.47;1.90;;;20.10;96.10;;;;;;5017936;28;20088;-88
2021/06/30 10:46:53;;;;;;;2.70;2.17;;;20.20;95.60;;;;;;5017804;28;20111;-90
2021/06/30 10:49:20;;;;;;;3.15;1.98;;;20.20;95.80;;;;;;5046817;28;20061;-89
2021/06/30 10:51:49;;;;;;;5.85;2.15;;;20.20;95.60;;;;;;5018128;28;20578;-89
2021/06/30 10:54:37;;;;;;;1.98;1.77;;;20.30;96.10;;;;;;5017592;28;20087;-89
2021/06/30 10:57:39;;;;;;;3.88;1.30;;;20.30;95.40;;;;;;5018752;28;20033;-89
2021/06/30 11:00:05;;;;;;;2.45;1.90;;;20.30;95.40;;;;;;5014712;28;20172;-83
2021/06/30 11:02:33;;;;;;;4.20;1.55;;;20.30;95.40;;;;;;5017461;28;20159;-83
2021/06/30 11:05:13;;;;;;;2.63;1.55;;;20.30;95.80;;;;;;5031720;28;20045;-84
2021/06/30 11:07:40;;;;;;;2.20;1.45;;;20.50;95.30;;;;;;5016158;28;20377;-84
2021/06/30 11:10:20;;;;;;;4.00;1.98;;;20.60;95.20;;;;;;5016776;28;20254;-84
2021/06/30 11:12:53;;;;;;;9.73;1.95;;;20.70;96.00;;;;;;5016371;28;20109;-84
2021/06/30 11:15:37;;;;;;;1.52;1.10;;;20.80;94.80;;;;;;5016851;28;20156;-83
2021/06/30 11:18:24;;;;;;;4.47;1.52;;;20.90;93.90;;;;;;5016209;28;20045;-84
2021/06/30 11:20:54;;;;;;;4.72;1.05;;;21.00;94.00;;;;;;5009460;28;20063;-84
2021/06/30 11:23:25;;;;;;;1.73;1.13;;;21.10;93.90;;;;;;5035462;28;20052;-83
2021/06/30 11:25:54;;;;;;;1.80;1.27;;;21.30;94.00;;;;;;5027369;28;20334;-84
2021/06/30 11:28:38;;;;;;;3.33;1.52;;;21.40;93.40;;;;;;5036925;28;20472;-84
2021/06/30 11:31:25;;;;;;;2.45;1.02;;;21.50;93.40;;;;;;5036755;28;20309;-85
2021/06/30 11:34:17;;;;;;;4.20;0.90;;;21.50;92.50;;;;;;5017183;28;20037;-83
2021/06/30 11:36:43;;;;;;;1.20;0.80;;;21.60;93.30;;;;;;4997616;28;20276;-86
2021/06/30 11:39:10;;;;;;;2.22;0.70;;;21.60;92.00;;;;;;5014590;28;20101;-84
2021/06/30 11:41:47;;;;;;;8.93;2.28;;;21.70;92.50;;;;;;4998757;28;20034;-84
2021/06/30 11:44:14;;;;;;;1.33;0.60;;;21.80;92.30;;;;;;5019167;28;20420;-86
2021/06/30 11:46:42;;;;;;;1.65;0.73;;;22.00;91.90;;;;;;4997380;28;20287;-85
2021/06/30 11:49:12;;;;;;;3.70;0.73;;;22.00;90.10;;;;;;5002270;28;20038;-84
2021/06/30 11:51:38;;;;;;;1.08;0.80;;;22.10;90.70;;;;;;4996481;28;20038;-85
2021/06/30 11:54:12;;;;;;;4.70;0.90;;;22.20;90.90;;;;;;4997995;28;20178;-85
2021/06/30 11:56:39;;;;;;;2.22;0.98;;;22.30;90.60;;;;;;5015989;28;20038;-84
2021/06/30 11:59:36;;;;;;;1.10;0.80;;;22.50;90.20;;;;;;5016856;28;20038;-84
2021/06/30 12:02:02;;;;;;;3.45;0.70;;;22.50;90.40;;;;;;5000006;28;20049;-84
2021/06/30 12:04:29;;;;;;;1.40;0.65;;;22.50;88.60;;;;;;5016841;28;20436;-83
2021/06/30 12:06:58;;;;;;;2.63;0.70;;;22.60;87.80;;;;;;5015262;28;20048;-84
2021/06/30 12:09:34;;;;;;;3.33;0.65;;;22.60;88.70;;;;;;5017436;28;20072;-84
2021/06/30 12:12:08;;;;;;;1.73;0.75;;;22.70;87.30;;;;;;5016020;28;20046;-84
2021/06/30 12:14:43;;;;;;;2.70;1.50;;;22.80;87.70;;;;;;5047683;28;20038;-85
2021/06/30 12:17:10;;;;;;;0.90;0.80;;;22.90;86.60;;;;;;5015006;28;20045;-85
2021/06/30 12:19:42;;;;;;;0.80;0.70;;;23.00;85.50;;;;;;5005310;28;20041;-83
2021/06/30 12:22:18;;;;;;;6.63;1.10;;;23.10;86.40;;;;;;5022084;28;20555;-84
2021/06/30 12:24:45;;;;;;;1.70;1.05;;;23.20;86.90;;;;;;5027615;28;20447;-86
2021/06/30 12:27:11;;;;;;;1.20;0.57;;;23.40;86.30;;;;;;5021288;28;20041;-84
2021/06/30 12:29:39;;;;;;;2.22;0.70;;;23.50;83.30;;;;;;5016458;28;20364;-83
2021/06/30 12:32:13;;;;;;;0.90;0.65;;;23.60;84.70;;;;;;4996430;28;20078;-83
2021/06/30 12:34:41;;;;;;;0.73;0.73;;;23.50;83.60;;;;;;5012913;28;20037;-83
2021/06/30 12:37:07;;;;;;;0.80;0.80;;;23.50;83.50;;;;;;5015280;28;20049;-82
2021/06/30 12:39:34;;;;;;;0.65;0.65;;;23.40;84.60;;;;;;5020191;28;20393;-84
2021/06/30 12:42:01;;;;;;;3.78;1.05;;;23.40;84.00;;;;;;5033648;28;20078;-86
2021/06/30 12:44:28;;;;;;;3.55;0.90;;;23.20;86.40;;;;;;5035969;28;20045;-83
2021/06/30 12:47:11;;;;;;;1.05;0.85;;;23.20;85.10;;;;;;5041731;28;20084;-84
2021/06/30 12:49:37;;;;;;;7.38;1.02;;;23.20;84.90;;;;;;5050926;28;20041;-83
2021/06/30 12:52:03;;;;;;;0.90;0.70;;;23.20;86.30;;;;;;5031229;28;20068;-85
2021/06/30 12:54:29;;;;;;;0.90;0.63;;;23.30;84.00;;;;;;5017803;28;20422;-84
2021/06/30 12:57:04;;;;;;;1.08;0.63;;;23.50;85.00;;;;;;5017469;28;20074;-85
2021/06/30 12:59:29;;;;;;;1.70;0.63;;;23.70;81.60;;;;;;5006216;28;20033;-85
2021/06/30 13:01:56;;;;;;;1.42;0.80;;;23.90;83.20;;;;;;5011355;28;20042;-84
2021/06/30 13:04:29;;;;;;;0.80;0.60;;;24.10;83.10;;;;;;5008385;28;20065;-84